Mankato, MN

7:54 AM CDT on August 28, 2015 (GMT -0500)
Physics & Astronomy | | Change Station
CLOSE
Current Station
Personal Weather Station
Location: Mankato, MN
Elevation: 1010 ft
Nearby Weather Stations

Elev 1010 ft 44.15 °N, 94.00 °W | Updated 4 seconds ago

Rain
Rain
62.4 °F
Feels Like 62.4 °F
N
1.0
Wind Variable Wind from SE
Gusts 11.0 mph

Today
High -- | Low -- °F
--% Chance of Precip.
Yesterday
High -- | Low -- °F
Precip. -- in
6:34 AM 7:59 PM
Waxing Gibbous, 98% visible
Pressure 30.02 in
Visibility 7.0 miles
Clouds Few 5000 ft
Mostly Cloudy 7500 ft
Dew Point 59 °F
Humidity 90%
Rainfall 0.18 in
Snow Depth Not available.
UV 0 out of 12
Pollen 1.00 out of 12
Air Quality Not available.
Flu Activity Not available.
METAR KMKT 281235Z 16010G14KT 7SM FEW050 BKN075 17/15 A3002 RMK AO1
Pressure 30.02 in
Visibility 7.0 miles
Clouds Few 5000 ft
Mostly Cloudy 7500 ft
Dew Point 59 °F
Humidity 90%
Rainfall 0.18 in
Snow Depth Not available.
UV 0 out of 12
Pollen 1.00 out of 12
Air Quality Not available.
Flu Activity Not available.
METAR KMKT 281235Z 16010G14KT 7SM FEW050 BKN075 17/15 A3002 RMK AO1

10-Day Weather Forecast

×

Almanac

Astronomy

Aug. 28, 2015 Rise Set
Actual Time
Civil Twilight
Nautical Twilight
Astronomical Twilight
Moon
Length of Visible Light
Length of Day
Tomorrow will be .
, % of the Moon is Illuminated

Today's Extremes

State Highs State Lows

Community

WunderPhotos

Upload Photos

1,850,373 photos uploaded!

WunderBlogs® & News

Nearby

Air Quality

  Air Quality AQ Index Pollutant
Not available.

Snow Depth

Station Depth Elevation

Earthquake Activity

City Distance Mag. Time & Date
Minimum magnitude displayed is 2.5.

Coastal Water Temperatures

Place Temperature

Stations

Nearby Weather Stations

Station Location Temp. Windchill Dew Point Humidity Wind Precip. Elev Updated Type